Time;durP1;ratioP1;P1;durP2;ratioP2;P2;SDS_P1;SDS_P2;PMS_P1;PMS_P2;Temp;Humidity;BMP_temperature;BMP_pressure;BME280_temperature;BME280_humidity;BME280_pressure;Samples;Min_cycle;Max_cycle;Signal;HPM_P1;HPM_P2
2023/10/31 00:00:17;;;;;;;11.18;4.53;;;;;;;;;;5073080;28;20474;-78
2023/10/31 00:03:01;;;;;;;15.27;5.25;;;;;;;;;;5072218;28;20053;-78
2023/10/31 00:05:47;;;;;;;14.63;5.47;;;;;;;;;;5079352;28;20447;-78
2023/10/31 00:08:34;;;;;;;14.80;5.25;;;;;;;;;;5072434;28;20048;-78
2023/10/31 00:11:20;;;;;;;9.82;4.75;;;;;;;;;;5073950;28;20053;-78
2023/10/31 00:14:05;;;;;;;13.07;5.40;;;;;;;;;;5074141;28;20052;-79
2023/10/31 00:16:52;;;;;;;24.13;5.20;;;;;;;;;;5073840;28;20049;-79
2023/10/31 00:19:37;;;;;;;14.00;6.05;;;;;;;;;;5074076;28;20371;-79
2023/10/31 00:22:23;;;;;;;12.68;5.10;;;;;;;;;;5073909;28;20037;-78
2023/10/31 00:25:09;;;;;;;9.90;4.30;;;;;;;;;;5073539;28;20053;-79
2023/10/31 00:27:54;;;;;;;8.60;4.18;;;;;;;;;;5073932;28;20056;-79
2023/10/31 00:30:40;;;;;;;6.43;3.30;;;;;;;;;;5073951;28;20636;-80
2023/10/31 00:33:27;;;;;;;7.25;2.67;;;;;;;;;;5074017;28;20044;-79
2023/10/31 00:36:12;;;;;;;8.98;3.47;;;;;;;;;;5074064;28;20040;-79
2023/10/31 00:38:56;;;;;;;13.43;3.20;;;;;;;;;;5074036;28;20485;-80
2023/10/31 00:41:46;;;;;;;10.13;3.72;;;;;;;;;;5065264;28;20036;-80
2023/10/31 00:44:34;;;;;;;10.43;4.22;;;;;;;;;;5073904;28;20497;-80
2023/10/31 00:47:19;;;;;;;2.85;1.70;;;;;;;;;;5065579;28;20037;-81
2023/10/31 00:50:04;;;;;;;9.63;3.80;;;;;;;;;;5065392;28;20049;-81
2023/10/31 00:52:49;;;;;;;11.40;4.30;;;;;;;;;;5073667;28;20060;-79
2023/10/31 00:55:35;;;;;;;10.98;4.45;;;;;;;;;;5073539;28;20052;-81
2023/10/31 00:58:20;;;;;;;11.43;3.85;;;;;;;;;;5080640;28;20049;-81
2023/10/31 01:01:05;;;;;;;10.63;4.38;;;;;;;;;;5080533;28;20481;-80
2023/10/31 01:03:51;;;;;;;10.82;4.72;;;;;;;;;;5072657;28;20501;-79
2023/10/31 01:06:43;;;;;;;9.68;3.50;;;;;;;;;;5073108;28;20044;-79
2023/10/31 01:09:28;;;;;;;8.93;4.05;;;;;;;;;;5073079;28;20383;-79
2023/10/31 01:12:14;;;;;;;5.60;2.67;;;;;;;;;;5072594;28;20044;-79
2023/10/31 01:14:59;;;;;;;11.52;3.58;;;;;;;;;;5063558;28;20048;-78
2023/10/31 01:17:44;;;;;;;10.35;3.55;;;;;;;;;;5073121;28;20048;-78
2023/10/31 01:20:29;;;;;;;8.52;3.97;;;;;;;;;;5064567;28;20060;-79
2023/10/31 01:23:14;;;;;;;9.27;4.55;;;;;;;;;;5057543;28;20413;-79
2023/10/31 01:25:59;;;;;;;15.25;6.78;;;;;;;;;;5072017;28;20036;-80
2023/10/31 01:28:45;;;;;;;13.93;7.97;;;;;;;;;;5072291;28;20052;-80
2023/10/31 01:31:30;;;;;;;12.18;6.75;;;;;;;;;;5072726;28;20040;-79
2023/10/31 01:34:15;;;;;;;12.90;6.90;;;;;;;;;;5072544;28;20052;-79
2023/10/31 01:37:02;;;;;;;17.17;7.32;;;;;;;;;;5072782;28;20549;-79
2023/10/31 01:39:46;;;;;;;30.80;7.72;;;;;;;;;;5072213;28;20040;-78
2023/10/31 01:42:32;;;;;;;16.10;7.28;;;;;;;;;;5079548;28;20041;-78
2023/10/31 01:45:16;;;;;;;14.13;7.10;;;;;;;;;;5064468;28;20040;-78
2023/10/31 01:48:03;;;;;;;12.48;6.82;;;;;;;;;;5072276;28;20045;-78
2023/10/31 01:50:48;;;;;;;16.23;7.68;;;;;;;;;;5072792;28;20383;-79
2023/10/31 01:53:34;;;;;;;17.65;7.45;;;;;;;;;;5072697;28;20048;-77
2023/10/31 01:56:20;;;;;;;18.02;7.82;;;;;;;;;;5072215;28;20036;-77
2023/10/31 01:59:09;;;;;;;19.90;8.00;;;;;;;;;;5064372;28;20052;-78
2023/10/31 02:01:57;;;;;;;14.13;7.30;;;;;;;;;;5064151;28;20040;-81
2023/10/31 02:04:42;;;;;;;17.30;7.45;;;;;;;;;;5072498;28;20048;-80
2023/10/31 02:07:27;;;;;;;16.55;8.43;;;;;;;;;;5072554;28;20041;-81
2023/10/31 02:10:13;;;;;;;17.17;8.45;;;;;;;;;;5074540;28;20040;-79
2023/10/31 02:12:58;;;;;;;19.75;8.80;;;;;;;;;;5072086;28;20048;-78
2023/10/31 02:15:44;;;;;;;18.42;8.15;;;;;;;;;;5072151;28;20044;-79
2023/10/31 02:18:29;;;;;;;19.00;7.60;;;;;;;;;;5071803;28;20048;-80
2023/10/31 02:21:15;;;;;;;14.25;7.38;;;;;;;;;;5063695;28;20048;-79
2023/10/31 02:24:02;;;;;;;14.45;7.07;;;;;;;;;;5071554;28;20036;-79
2023/10/31 02:26:47;;;;;;;18.15;7.95;;;;;;;;;;5071810;28;20041;-80
2023/10/31 02:29:33;;;;;;;17.33;6.95;;;;;;;;;;5071621;28;20036;-80
2023/10/31 02:32:19;;;;;;;16.35;7.40;;;;;;;;;;5072831;28;20489;-80
2023/10/31 02:35:04;;;;;;;14.55;6.70;;;;;;;;;;5063623;28;20367;-78
2023/10/31 02:37:50;;;;;;;16.63;7.38;;;;;;;;;;5071498;28;20044;-79
2023/10/31 02:40:35;;;;;;;13.50;7.32;;;;;;;;;;5063449;28;20037;-79
2023/10/31 02:43:20;;;;;;;14.20;6.63;;;;;;;;;;5071581;28;20509;-79
2023/10/31 02:46:05;;;;;;;13.35;6.43;;;;;;;;;;5072096;28;20052;-78
2023/10/31 02:48:51;;;;;;;9.15;5.10;;;;;;;;;;5071988;28;20048;-79
2023/10/31 02:51:37;;;;;;;10.63;5.97;;;;;;;;;;5072233;28;20048;-79
2023/10/31 02:54:22;;;;;;;15.15;5.80;;;;;;;;;;5071955;28;20037;-78
2023/10/31 02:57:10;;;;;;;15.18;5.78;;;;;;;;;;5071555;28;20048;-79
2023/10/31 02:59:54;;;;;;;11.80;6.28;;;;;;;;;;5071678;28;20048;-78
2023/10/31 03:02:40;;;;;;;13.48;6.97;;;;;;;;;;5063139;28;20040;-80
2023/10/31 03:05:26;;;;;;;14.80;6.95;;;;;;;;;;5072119;28;20498;-79
2023/10/31 03:08:12;;;;;;;17.83;6.50;;;;;;;;;;5063747;28;20391;-80
2023/10/31 03:10:56;;;;;;;15.85;6.65;;;;;;;;;;5063933;28;20052;-81
2023/10/31 03:13:41;;;;;;;14.02;6.15;;;;;;;;;;5071944;28;20036;-80
2023/10/31 03:16:26;;;;;;;16.83;6.57;;;;;;;;;;5063525;28;20044;-79
2023/10/31 03:19:11;;;;;;;13.77;6.15;;;;;;;;;;5071680;28;20371;-79
2023/10/31 03:21:57;;;;;;;11.50;5.30;;;;;;;;;;5073162;28;20474;-79
2023/10/31 03:24:42;;;;;;;10.75;4.25;;;;;;;;;;5073141;28;20037;-79
2023/10/31 03:27:27;;;;;;;12.15;4.90;;;;;;;;;;5064628;28;20037;-79
2023/10/31 03:30:12;;;;;;;21.95;11.52;;;;;;;;;;5073288;28;20044;-80
2023/10/31 03:32:57;;;;;;;16.65;6.70;;;;;;;;;;5033141;28;20049;-79
2023/10/31 03:35:42;;;;;;;13.93;6.80;;;;;;;;;;5032772;28;20384;-79
2023/10/31 03:38:27;;;;;;;13.85;6.03;;;;;;;;;;5039946;28;20046;-81
2023/10/31 03:41:13;;;;;;;11.50;6.30;;;;;;;;;;5043254;28;20392;-79
2023/10/31 03:43:58;;;;;;;18.05;6.78;;;;;;;;;;5036060;28;20038;-79
2023/10/31 03:46:43;;;;;;;13.52;5.97;;;;;;;;;;5036454;28;20045;-79
2023/10/31 03:49:29;;;;;;;11.25;4.80;;;;;;;;;;5036387;28;20041;-79
2023/10/31 03:52:13;;;;;;;10.13;4.47;;;;;;;;;;5041793;28;20041;-79
2023/10/31 03:54:59;;;;;;;12.02;5.53;;;;;;;;;;5036154;28;20479;-79
2023/10/31 03:57:44;;;;;;;14.77;6.28;;;;;;;;;;5036558;28;20041;-78
2023/10/31 04:00:29;;;;;;;16.88;6.13;;;;;;;;;;5042033;28;20037;-80
2023/10/31 04:03:15;;;;;;;15.60;5.70;;;;;;;;;;5036503;28;20042;-79
2023/10/31 04:06:00;;;;;;;12.55;6.00;;;;;;;;;;5042071;28;20041;-79
2023/10/31 04:08:45;;;;;;;18.00;5.97;;;;;;;;;;5035864;28;20049;-79
2023/10/31 04:11:30;;;;;;;10.82;6.07;;;;;;;;;;5034048;28;20479;-80
2023/10/31 04:14:15;;;;;;;13.27;6.22;;;;;;;;;;5035213;28;20045;-78
2023/10/31 04:17:01;;;;;;;10.75;5.95;;;;;;;;;;5035455;28;20053;-79
2023/10/31 04:19:47;;;;;;;15.98;6.32;;;;;;;;;;5035684;28;20037;-79
2023/10/31 04:22:32;;;;;;;12.23;5.68;;;;;;;;;;5042272;28;20053;-78
2023/10/31 04:25:17;;;;;;;14.13;6.07;;;;;;;;;;5035990;28;20336;-78
2023/10/31 04:28:02;;;;;;;15.00;5.78;;;;;;;;;;5035569;28;20037;-79
2023/10/31 04:30:47;;;;;;;18.58;6.45;;;;;;;;;;5044721;28;20040;-79
2023/10/31 04:33:32;;;;;;;16.30;7.22;;;;;;;;;;5080868;28;20041;-79
2023/10/31 04:36:18;;;;;;;14.98;7.45;;;;;;;;;;5075488;28;20048;-79
2023/10/31 04:39:04;;;;;;;17.40;7.60;;;;;;;;;;5075432;28;20053;-79
2023/10/31 04:41:49;;;;;;;18.55;6.78;;;;;;;;;;5082165;28;20371;-79
2023/10/31 04:44:34;;;;;;;6.90;3.03;;;;;;;;;;5074904;28;20048;-80
2023/10/31 04:47:19;;;;;;;9.57;4.03;;;;;;;;;;5075595;28;20040;-79
2023/10/31 04:50:05;;;;;;;8.23;2.70;;;;;;;;;;5074273;28;20045;-80
2023/10/31 04:52:50;;;;;;;9.43;3.30;;;;;;;;;;5075139;28;20044;-80
2023/10/31 04:55:35;;;;;;;7.93;2.75;;;;;;;;;;5081759;28;20045;-80
2023/10/31 04:58:20;;;;;;;8.68;2.95;;;;;;;;;;5059692;28;20049;-79
2023/10/31 05:01:10;;;;;;;7.85;2.92;;;;;;;;;;5074926;28;20056;-81
2023/10/31 05:03:55;;;;;;;6.53;2.58;;;;;;;;;;5075257;28;20053;-80
2023/10/31 05:06:40;;;;;;;7.90;2.70;;;;;;;;;;5067099;28;20037;-80
2023/10/31 05:09:26;;;;;;;7.32;2.50;;;;;;;;;;5074874;28;20052;-80
2023/10/31 05:12:11;;;;;;;9.93;3.42;;;;;;;;;;5073556;28;20041;-80
2023/10/31 05:14:56;;;;;;;9.27;3.35;;;;;;;;;;5074641;28;20044;-81
2023/10/31 05:17:42;;;;;;;13.65;4.10;;;;;;;;;;5074639;28;20040;-81
2023/10/31 05:20:27;;;;;;;10.55;3.50;;;;;;;;;;5074617;28;20481;-80
2023/10/31 05:23:13;;;;;;;10.73;3.38;;;;;;;;;;5074486;28;20044;-82
2023/10/31 05:25:58;;;;;;;10.55;3.42;;;;;;;;;;5074440;28;20485;-79
2023/10/31 05:28:44;;;;;;;10.75;3.88;;;;;;;;;;5074490;28;20048;-79
2023/10/31 05:31:29;;;;;;;8.93;2.78;;;;;;;;;;5076611;28;20375;-79
2023/10/31 05:34:14;;;;;;;6.45;2.40;;;;;;;;;;5074313;28;20048;-80
2023/10/31 05:36:59;;;;;;;8.52;2.85;;;;;;;;;;5073343;28;20036;-80
2023/10/31 05:39:45;;;;;;;11.02;3.20;;;;;;;;;;5074208;28;20033;-79
2023/10/31 05:42:30;;;;;;;8.13;3.15;;;;;;;;;;5083949;28;20040;-79
2023/10/31 05:45:15;;;;;;;6.05;2.45;;;;;;;;;;5081783;28;20045;-80
2023/10/31 05:48:01;;;;;;;9.77;2.83;;;;;;;;;;5059110;28;20048;-79
2023/10/31 05:50:47;;;;;;;5.70;2.40;;;;;;;;;;5080948;28;20052;-79
2023/10/31 05:53:33;;;;;;;12.65;3.88;;;;;;;;;;5067720;28;20391;-79
2023/10/31 05:56:18;;;;;;;6.75;2.10;;;;;;;;;;5074379;28;20048;-80
2023/10/31 05:59:03;;;;;;;9.07;3.30;;;;;;;;;;5074588;28;20044;-78
2023/10/31 06:01:50;;;;;;;9.13;3.13;;;;;;;;;;5073168;28;20049;-82
2023/10/31 06:04:35;;;;;;;8.20;3.17;;;;;;;;;;5079558;28;20041;-80
2023/10/31 06:07:20;;;;;;;11.45;3.15;;;;;;;;;;5073258;28;20474;-81
2023/10/31 06:10:05;;;;;;;4.25;2.08;;;;;;;;;;5072995;28;20049;-80
2023/10/31 06:12:50;;;;;;;9.77;3.47;;;;;;;;;;5071468;28;20052;-79
2023/10/31 06:15:37;;;;;;;5.03;2.47;;;;;;;;;;5071646;28;20049;-81
2023/10/31 06:18:23;;;;;;;10.70;3.03;;;;;;;;;;5072287;28;20044;-81
2023/10/31 06:21:09;;;;;;;11.15;3.00;;;;;;;;;;5071279;28;20045;-79
2023/10/31 06:23:53;;;;;;;7.22;2.70;;;;;;;;;;5071002;28;20494;-79
2023/10/31 06:26:39;;;;;;;6.55;3.28;;;;;;;;;;5071352;28;20044;-79
2023/10/31 06:29:24;;;;;;;10.82;4.03;;;;;;;;;;5071574;28;20048;-78
2023/10/31 06:32:10;;;;;;;14.27;3.63;;;;;;;;;;5071170;28;20036;-78
2023/10/31 06:34:55;;;;;;;11.60;4.20;;;;;;;;;;5071346;28;20048;-77
2023/10/31 06:37:41;;;;;;;8.25;3.28;;;;;;;;;;5071286;28;20375;-78
2023/10/31 06:40:26;;;;;;;11.23;3.95;;;;;;;;;;5072052;28;20048;-79
2023/10/31 06:43:12;;;;;;;9.95;3.80;;;;;;;;;;5071130;28;20048;-80
2023/10/31 06:46:00;;;;;;;11.45;3.50;;;;;;;;;;5071567;28;20454;-79
2023/10/31 06:48:45;;;;;;;10.20;3.33;;;;;;;;;;5071642;28;20037;-79
2023/10/31 06:51:31;;;;;;;10.30;3.00;;;;;;;;;;5057282;28;20041;-80
2023/10/31 06:54:17;;;;;;;9.73;3.10;;;;;;;;;;5071966;28;20041;-79
2023/10/31 06:57:04;;;;;;;6.95;2.75;;;;;;;;;;5078576;28;20485;-78
2023/10/31 06:59:49;;;;;;;7.45;2.60;;;;;;;;;;5071976;28;20040;-78
2023/10/31 07:02:35;;;;;;;9.95;3.67;;;;;;;;;;5072064;28;20045;-81
2023/10/31 07:05:20;;;;;;;6.13;2.55;;;;;;;;;;5071954;28;20049;-80
2023/10/31 07:08:06;;;;;;;10.02;3.13;;;;;;;;;;5070880;28;20052;-78
2023/10/31 07:10:51;;;;;;;5.32;2.45;;;;;;;;;;5071276;28;20498;-78
2023/10/31 07:13:37;;;;;;;6.95;2.70;;;;;;;;;;5072832;28;20044;-78
2023/10/31 07:16:23;;;;;;;9.02;3.13;;;;;;;;;;5075189;28;20053;-80
2023/10/31 07:19:07;;;;;;;7.88;3.20;;;;;;;;;;5075895;28;20044;-79
2023/10/31 07:21:54;;;;;;;18.75;4.45;;;;;;;;;;5075419;28;20044;-77
2023/10/31 07:24:38;;;;;;;8.80;3.30;;;;;;;;;;5059598;28;20045;-79
2023/10/31 07:27:23;;;;;;;8.18;3.78;;;;;;;;;;5066916;28;20045;-79
2023/10/31 07:30:09;;;;;;;4.93;2.30;;;;;;;;;;5075307;28;20048;-80
2023/10/31 07:32:54;;;;;;;9.55;3.95;;;;;;;;;;5074586;28;20052;-81
2023/10/31 07:35:40;;;;;;;20.42;5.63;;;;;;;;;;5075216;28;20052;-81
2023/10/31 07:38:27;;;;;;;14.68;5.65;;;;;;;;;;5081822;28;20036;-81
2023/10/31 07:41:12;;;;;;;11.82;5.10;;;;;;;;;;5075130;28;20052;-79
2023/10/31 07:43:57;;;;;;;10.40;4.35;;;;;;;;;;5074950;28;20044;-82
2023/10/31 07:46:42;;;;;;;11.07;4.18;;;;;;;;;;5074902;28;20045;-80
2023/10/31 07:49:30;;;;;;;11.13;3.53;;;;;;;;;;5081725;28;20040;-79
2023/10/31 07:52:16;;;;;;;14.13;3.45;;;;;;;;;;5074537;28;20048;-78
2023/10/31 07:55:02;;;;;;;8.68;3.67;;;;;;;;;;5074856;28;20045;-80
2023/10/31 07:57:48;;;;;;;12.10;3.38;;;;;;;;;;5074705;28;20045;-78
2023/10/31 08:00:35;;;;;;;9.20;4.68;;;;;;;;;;5074635;28;20048;-78
2023/10/31 08:03:20;;;;;;;14.45;4.55;;;;;;;;;;5065613;28;20045;-79
2023/10/31 08:06:05;;;;;;;15.85;4.45;;;;;;;;;;5074118;28;20044;-80
2023/10/31 08:08:51;;;;;;;13.20;4.00;;;;;;;;;;5074797;28;20371;-79
2023/10/31 08:11:36;;;;;;;12.93;4.38;;;;;;;;;;5074208;28;20045;-81
2023/10/31 08:14:22;;;;;;;12.07;4.65;;;;;;;;;;5074664;28;20048;-80
2023/10/31 08:17:07;;;;;;;15.00;4.47;;;;;;;;;;5074510;28;20052;-81
2023/10/31 08:19:52;;;;;;;14.60;4.45;;;;;;;;;;5065542;28;20037;-80
2023/10/31 08:22:37;;;;;;;17.00;5.43;;;;;;;;;;5074317;28;20048;-80
2023/10/31 08:25:22;;;;;;;6.93;2.83;;;;;;;;;;5065644;28;20049;-79
2023/10/31 08:28:08;;;;;;;13.95;5.50;;;;;;;;;;5073483;28;20040;-79
2023/10/31 08:30:52;;;;;;;12.85;3.95;;;;;;;;;;5073119;28;20048;-73
2023/10/31 08:33:37;;;;;;;8.13;3.00;;;;;;;;;;5072450;28;20477;-73
2023/10/31 08:36:23;;;;;;;8.65;4.20;;;;;;;;;;5073058;28;20048;-74
2023/10/31 08:39:08;;;;;;;8.88;4.07;;;;;;;;;;5072940;28;20049;-74
2023/10/31 08:41:55;;;;;;;12.77;4.05;;;;;;;;;;5073344;28;20037;-75
2023/10/31 08:44:41;;;;;;;8.70;3.65;;;;;;;;;;5073131;28;20045;-73
2023/10/31 08:47:26;;;;;;;10.55;4.00;;;;;;;;;;5080234;28;20049;-77
2023/10/31 08:50:12;;;;;;;10.00;3.03;;;;;;;;;;5073913;28;20052;-77
2023/10/31 08:52:57;;;;;;;8.73;3.58;;;;;;;;;;5073088;28;20643;-74
2023/10/31 08:55:44;;;;;;;4.10;1.98;;;;;;;;;;5073106;28;20040;-72
2023/10/31 08:58:29;;;;;;;10.27;4.65;;;;;;;;;;5073011;28;20048;-71
2023/10/31 09:01:14;;;;;;;7.53;2.83;;;;;;;;;;5073136;28;20040;-75
2023/10/31 09:04:00;;;;;;;6.95;3.17;;;;;;;;;;5072729;28;20040;-75
2023/10/31 09:06:45;;;;;;;9.73;4.22;;;;;;;;;;5073061;28;20044;-74
2023/10/31 09:09:31;;;;;;;12.40;4.18;;;;;;;;;;5072587;28;20095;-75
2023/10/31 09:12:16;;;;;;;10.75;4.22;;;;;;;;;;5072873;28;20048;-72
2023/10/31 09:15:02;;;;;;;6.93;3.60;;;;;;;;;;5072676;28;20045;-72
2023/10/31 09:17:46;;;;;;;5.95;2.90;;;;;;;;;;5057501;28;20048;-73
2023/10/31 09:20:32;;;;;;;13.95;6.95;;;;;;;;;;5072683;28;20490;-73
2023/10/31 09:23:18;;;;;;;14.63;3.90;;;;;;;;;;5072410;28;20045;-72
2023/10/31 09:26:03;;;;;;;10.00;3.42;;;;;;;;;;5072068;28;20052;-72
2023/10/31 09:28:51;;;;;;;10.20;3.60;;;;;;;;;;5079087;28;20044;-74
2023/10/31 09:31:37;;;;;;;11.05;3.30;;;;;;;;;;5075691;28;20052;-75
2023/10/31 09:34:23;;;;;;;11.13;3.35;;;;;;;;;;5072300;28;20044;-75
2023/10/31 09:37:08;;;;;;;9.45;2.70;;;;;;;;;;5071544;28;20045;-73
2023/10/31 09:39:53;;;;;;;15.90;7.00;;;;;;;;;;5071413;28;20485;-72
2023/10/31 09:42:38;;;;;;;8.65;2.95;;;;;;;;;;5072194;28;20056;-73
2023/10/31 09:45:24;;;;;;;12.02;3.65;;;;;;;;;;5072301;28;20048;-74
2023/10/31 09:48:09;;;;;;;7.13;2.88;;;;;;;;;;5072399;28;20048;-73
2023/10/31 09:50:55;;;;;;;10.93;2.83;;;;;;;;;;5072009;28;20041;-72
2023/10/31 09:53:41;;;;;;;5.78;2.45;;;;;;;;;;5071508;28;20052;-73
2023/10/31 09:56:26;;;;;;;6.57;2.13;;;;;;;;;;5071925;28;20478;-75
2023/10/31 09:59:13;;;;;;;9.35;3.40;;;;;;;;;;5071704;28;20045;-75
2023/10/31 10:01:59;;;;;;;7.50;2.50;;;;;;;;;;5071941;28;20044;-72
2023/10/31 10:04:43;;;;;;;;;;;;;;;;;;5072074;28;20474;-74
2023/10/31 10:07:28;;;;;;;3.33;1.90;;;;;;;;;;5071778;28;19924;-73
2023/10/31 10:10:13;;;;;;;4.47;2.30;;;;;;;;;;5071185;28;20371;-73
2023/10/31 10:12:58;;;;;;;6.18;2.03;;;;;;;;;;5071605;28;20040;-74
2023/10/31 10:15:52;;;;;;;6.22;2.70;;;;;;;;;;5071785;28;20044;-74
2023/10/31 10:18:40;;;;;;;6.63;2.47;;;;;;;;;;5071404;28;20053;-72
2023/10/31 10:21:25;;;;;;;5.55;2.60;;;;;;;;;;5071740;28;20045;-75
2023/10/31 10:24:09;;;;;;;7.68;2.28;;;;;;;;;;5071443;28;20052;-72
2023/10/31 10:26:55;;;;;;;5.75;2.50;;;;;;;;;;5071567;28;20060;-74
2023/10/31 10:29:41;;;;;;;6.15;2.95;;;;;;;;;;5071725;28;20040;-74
2023/10/31 10:32:26;;;;;;;6.22;3.22;;;;;;;;;;5071002;28;20044;-74
2023/10/31 10:35:11;;;;;;;7.00;2.33;;;;;;;;;;5071588;28;20044;-74
2023/10/31 10:37:58;;;;;;;7.88;2.45;;;;;;;;;;5071697;28;20386;-74
2023/10/31 10:40:44;;;;;;;8.38;3.00;;;;;;;;;;5071444;28;20505;-73
2023/10/31 10:43:31;;;;;;;6.28;2.83;;;;;;;;;;5071348;28;20506;-73
2023/10/31 10:46:16;;;;;;;9.93;4.03;;;;;;;;;;5071551;28;20049;-73
2023/10/31 10:49:06;;;;;;;8.00;3.22;;;;;;;;;;5075525;28;20044;-72
2023/10/31 10:52:05;;;;;;;5.22;2.53;;;;;;;;;;5075679;28;20040;-71
2023/10/31 10:54:53;;;;;;;5.90;2.70;;;;;;;;;;5075276;28;20371;-72
2023/10/31 10:57:39;;;;;;;7.72;2.60;;;;;;;;;;5075243;28;20052;-71
2023/10/31 11:00:24;;;;;;;8.07;2.80;;;;;;;;;;5075185;28;20509;-72
2023/10/31 11:03:10;;;;;;;3.90;2.25;;;;;;;;;;5082072;28;20048;-73
2023/10/31 11:05:55;;;;;;;4.88;2.85;;;;;;;;;;5075344;28;20497;-73
2023/10/31 11:08:41;;;;;;;9.20;2.47;;;;;;;;;;5059944;28;20036;-73
2023/10/31 11:11:26;;;;;;;8.02;3.58;;;;;;;;;;5075022;28;20053;-72
2023/10/31 11:14:12;;;;;;;6.68;3.38;;;;;;;;;;5074894;28;20052;-74
2023/10/31 11:16:59;;;;;;;4.88;2.20;;;;;;;;;;5075489;28;20052;-72
2023/10/31 11:19:44;;;;;;;8.48;3.15;;;;;;;;;;5075196;28;20044;-72
2023/10/31 11:22:44;;;;;;;6.43;2.42;;;;;;;;;;5075060;28;20040;-74
2023/10/31 11:25:31;;;;;;;5.90;2.63;;;;;;;;;;5074580;28;20037;-74
2023/10/31 11:28:17;;;;;;;5.50;2.00;;;;;;;;;;5074705;28;20049;-72
2023/10/31 11:31:04;;;;;;;5.57;2.63;;;;;;;;;;5074642;28;20049;-73
2023/10/31 11:33:49;;;;;;;16.33;3.22;;;;;;;;;;5074602;28;20048;-73
2023/10/31 11:36:35;;;;;;;4.35;2.08;;;;;;;;;;5074746;28;20044;-74
2023/10/31 11:39:26;;;;;;;11.88;3.08;;;;;;;;;;5081608;28;20037;-74
2023/10/31 11:42:17;;;;;;;6.50;2.63;;;;;;;;;;5081183;28;20045;-74
2023/10/31 11:45:03;;;;;;;7.35;3.25;;;;;;;;;;5074114;28;20045;-73
2023/10/31 11:47:49;;;;;;;6.78;2.75;;;;;;;;;;5074467;28;20044;-74
2023/10/31 11:50:34;;;;;;;3.40;1.60;;;;;;;;;;5081082;28;20041;-72
2023/10/31 11:53:22;;;;;;;4.18;1.95;;;;;;;;;;5081138;28;20387;-73
2023/10/31 11:56:09;;;;;;;6.50;1.92;;;;;;;;;;5074029;28;20064;-72
2023/10/31 11:59:00;;;;;;;4.22;1.63;;;;;;;;;;5073153;28;20037;-72
2023/10/31 12:01:46;;;;;;;5.15;1.95;;;;;;;;;;5058893;28;20045;-73
2023/10/31 12:04:31;;;;;;;5.22;2.15;;;;;;;;;;5073908;28;20041;-72
2023/10/31 12:07:18;;;;;;;5.72;2.58;;;;;;;;;;5074103;28;20053;-72
2023/10/31 12:10:05;;;;;;;7.22;2.63;;;;;;;;;;5073756;28;20045;-72
2023/10/31 12:12:51;;;;;;;5.45;2.28;;;;;;;;;;5080894;28;20040;-74
2023/10/31 12:15:36;;;;;;;6.45;2.72;;;;;;;;;;5073970;28;20052;-73
2023/10/31 12:18:22;;;;;;;5.13;2.30;;;;;;;;;;5073875;28;20044;-74
2023/10/31 12:21:08;;;;;;;10.43;2.85;;;;;;;;;;5080601;28;20390;-74
2023/10/31 12:24:01;;;;;;;8.80;2.75;;;;;;;;;;5080209;28;20470;-73
2023/10/31 12:26:47;;;;;;;10.13;3.58;;;;;;;;;;5073844;28;20045;-71
2023/10/31 12:29:33;;;;;;;6.85;3.30;;;;;;;;;;5073702;28;20040;-72
2023/10/31 12:32:19;;;;;;;15.43;5.30;;;;;;;;;;5073216;28;20363;-73
2023/10/31 12:35:10;;;;;;;8.80;3.38;;;;;;;;;;5073479;28;20040;-76
2023/10/31 12:37:57;;;;;;;9.80;3.10;;;;;;;;;;5072779;28;20037;-77
2023/10/31 12:40:43;;;;;;;7.13;2.80;;;;;;;;;;5073470;28;20041;-75
2023/10/31 12:43:29;;;;;;;10.55;3.90;;;;;;;;;;5073562;28;20044;-75
2023/10/31 12:46:26;;;;;;;8.88;4.35;;;;;;;;;;5073465;28;20048;-73
2023/10/31 12:49:23;;;;;;;7.63;3.20;;;;;;;;;;5073404;28;20037;-73
2023/10/31 12:52:08;;;;;;;9.70;3.53;;;;;;;;;;5073166;28;20049;-75
2023/10/31 12:54:54;;;;;;;13.93;3.53;;;;;;;;;;5073075;28;20049;-74
2023/10/31 12:57:40;;;;;;;15.88;3.22;;;;;;;;;;5073276;28;20363;-74
2023/10/31 13:00:34;;;;;;;10.77;2.90;;;;;;;;;;5072862;28;20048;-74
2023/10/31 13:03:20;;;;;;;14.75;2.58;;;;;;;;;;5072501;28;20040;-75
2023/10/31 13:06:15;;;;;;;12.90;3.20;;;;;;;;;;5072901;28;20363;-75
2023/10/31 13:09:00;;;;;;;;;;;;;;;;;;5073462;28;20049;-76
2023/10/31 13:11:46;;;;;;;7.80;3.58;;;;;;;;;;5071666;28;19919;-75
2023/10/31 13:14:31;;;;;;;10.70;4.10;;;;;;;;;;5079181;28;20490;-75
2023/10/31 13:17:17;;;;;;;12.93;4.45;;;;;;;;;;5072412;28;20044;-74
2023/10/31 13:20:04;;;;;;;9.07;3.45;;;;;;;;;;5072506;28;20044;-74
2023/10/31 13:22:49;;;;;;;14.20;4.32;;;;;;;;;;5072494;28;20048;-75
2023/10/31 13:25:34;;;;;;;14.75;7.35;;;;;;;;;;5056952;28;20044;-73
2023/10/31 13:28:19;;;;;;;18.73;4.80;;;;;;;;;;5072325;28;20041;-74
2023/10/31 13:31:06;;;;;;;12.35;4.63;;;;;;;;;;5057302;28;20033;-75
2023/10/31 13:33:51;;;;;;;14.30;3.33;;;;;;;;;;5072489;28;20049;-72
2023/10/31 13:36:38;;;;;;;8.52;3.65;;;;;;;;;;5072235;28;20041;-72
2023/10/31 13:39:23;;;;;;;11.82;3.20;;;;;;;;;;5072493;28;20044;-73
2023/10/31 13:42:10;;;;;;;11.40;3.63;;;;;;;;;;5072094;28;20052;-74
2023/10/31 13:44:56;;;;;;;10.35;2.88;;;;;;;;;;5072183;28;20048;-74
2023/10/31 13:47:41;;;;;;;10.95;3.40;;;;;;;;;;5072016;28;20040;-72
2023/10/31 13:50:26;;;;;;;9.52;4.00;;;;;;;;;;5072040;28;20041;-72
2023/10/31 13:53:11;;;;;;;11.77;3.40;;;;;;;;;;5071714;28;20048;-74
2023/10/31 13:55:57;;;;;;;7.80;2.88;;;;;;;;;;5071563;28;20375;-73
2023/10/31 13:58:42;;;;;;;14.20;6.90;;;;;;;;;;5071925;28;20041;-74
2023/10/31 14:01:28;;;;;;;16.83;6.55;;;;;;;;;;5071851;28;20044;-73
2023/10/31 14:04:14;;;;;;;15.55;7.32;;;;;;;;;;5071616;28;20040;-74
2023/10/31 14:07:00;;;;;;;16.52;7.38;;;;;;;;;;5078492;28;20048;-73
2023/10/31 14:09:45;;;;;;;14.70;5.60;;;;;;;;;;5071878;28;20490;-73
2023/10/31 14:12:30;;;;;;;18.45;9.55;;;;;;;;;;5072220;28;20048;-72
2023/10/31 14:15:17;;;;;;;16.45;8.70;;;;;;;;;;5072004;28;20052;-77
2023/10/31 14:18:02;;;;;;;23.17;6.07;;;;;;;;;;5078194;28;20375;-73
2023/10/31 14:20:48;;;;;;;12.65;6.95;;;;;;;;;;5071871;28;20048;-74
2023/10/31 14:23:33;;;;;;;15.20;5.03;;;;;;;;;;5071010;28;20612;-73
2023/10/31 14:26:22;;;;;;;11.55;4.78;;;;;;;;;;5071365;28;20045;-73
2023/10/31 14:29:08;;;;;;;16.88;6.78;;;;;;;;;;5078292;28;20049;-73
2023/10/31 14:31:54;;;;;;;12.80;5.00;;;;;;;;;;5070853;28;20478;-73
2023/10/31 14:34:40;;;;;;;14.07;5.30;;;;;;;;;;5071114;28;20049;-73
2023/10/31 14:37:27;;;;;;;12.50;4.43;;;;;;;;;;5077943;28;20494;-75
2023/10/31 14:40:12;;;;;;;9.95;4.40;;;;;;;;;;5078086;28;20045;-74
2023/10/31 14:42:57;;;;;;;16.40;4.20;;;;;;;;;;5077989;28;20478;-73
2023/10/31 14:45:42;;;;;;;18.80;6.13;;;;;;;;;;5055910;28;20505;-73
2023/10/31 14:48:27;;;;;;;20.95;7.05;;;;;;;;;;5071474;28;20367;-74
2023/10/31 14:51:13;;;;;;;14.13;6.85;;;;;;;;;;5071046;28;20398;-73
2023/10/31 14:53:59;;;;;;;19.02;7.15;;;;;;;;;;5071351;28;20489;-73
2023/10/31 14:56:46;;;;;;;14.25;5.20;;;;;;;;;;5071385;28;20041;-74
2023/10/31 14:59:31;;;;;;;19.05;7.07;;;;;;;;;;5071274;28;20049;-73
2023/10/31 15:02:17;;;;;;;10.13;3.92;;;;;;;;;;5070659;28;20049;-73
2023/10/31 15:05:03;;;;;;;12.75;3.72;;;;;;;;;;5061735;28;20091;-73
2023/10/31 15:07:48;;;;;;;13.73;5.63;;;;;;;;;;5078041;28;20052;-74
2023/10/31 15:10:32;;;;;;;11.27;4.40;;;;;;;;;;5071036;28;20045;-74
2023/10/31 15:13:18;;;;;;;13.02;5.50;;;;;;;;;;5070989;28;20057;-74
2023/10/31 15:16:04;;;;;;;13.20;6.43;;;;;;;;;;5072505;28;20048;-73
2023/10/31 15:18:48;;;;;;;130.00;39.40;;;;;;;;;;5073019;28;20044;-74
2023/10/31 15:21:34;;;;;;;120.07;41.72;;;;;;;;;;5072977;28;20048;-72
2023/10/31 15:24:19;;;;;;;88.65;30.55;;;;;;;;;;5073152;28;20051;-73
2023/10/31 15:27:05;;;;;;;56.88;20.85;;;;;;;;;;5072825;28;20059;-73
2023/10/31 15:29:50;;;;;;;15.55;5.40;;;;;;;;;;5072803;28;20052;-74
2023/10/31 15:32:36;;;;;;;9.65;4.50;;;;;;;;;;5072936;28;20493;-74
2023/10/31 15:35:21;;;;;;;16.65;4.25;;;;;;;;;;5075587;28;20048;-74
2023/10/31 15:38:06;;;;;;;10.30;3.72;;;;;;;;;;5076596;28;20044;-74
2023/10/31 15:40:52;;;;;;;10.40;4.05;;;;;;;;;;5076263;28;20044;-74
2023/10/31 15:43:37;;;;;;;15.05;4.18;;;;;;;;;;5076757;28;20355;-74
2023/10/31 15:46:22;;;;;;;14.15;3.67;;;;;;;;;;5083045;28;20048;-74
2023/10/31 15:49:07;;;;;;;11.13;4.20;;;;;;;;;;5076179;28;20048;-74
2023/10/31 15:51:52;;;;;;;11.95;3.67;;;;;;;;;;5076067;28;20041;-73
2023/10/31 15:54:38;;;;;;;16.55;3.20;;;;;;;;;;5076099;28;20048;-72
2023/10/31 15:57:24;;;;;;;9.63;3.08;;;;;;;;;;5076380;28;20044;-75
2023/10/31 16:00:10;;;;;;;12.65;3.60;;;;;;;;;;5076654;28;20470;-76
2023/10/31 16:02:56;;;;;;;9.13;3.47;;;;;;;;;;5076110;28;20049;-76
2023/10/31 16:05:44;;;;;;;23.15;10.40;;;;;;;;;;5075518;28;20037;-76
2023/10/31 16:08:29;;;;;;;14.43;4.32;;;;;;;;;;5076387;28;20047;-76
2023/10/31 16:11:16;;;;;;;12.20;4.63;;;;;;;;;;5082107;28;20041;-76
2023/10/31 16:14:02;;;;;;;11.50;4.28;;;;;;;;;;5060179;28;20048;-76
2023/10/31 16:16:48;;;;;;;19.58;8.00;;;;;;;;;;5059988;28;20049;-76
2023/10/31 16:19:34;;;;;;;11.95;5.97;;;;;;;;;;5081960;28;20040;-76
2023/10/31 16:22:20;;;;;;;19.60;9.43;;;;;;;;;;5075133;28;20041;-76
2023/10/31 16:25:05;;;;;;;27.73;11.68;;;;;;;;;;5075442;28;20470;-75